Buckeye, West Virginia
Current Conditions -  °F | °C
As of 11:15 PM on Tuesday 27 Jan 2015 (Local Time) from KHSP Reporting Station
Overcast Overcast  
Wind Chill: -6°   Ceiling: 900
Heat Index: 12°   Visibility: 10mi
Dew Point:   Wind: 20mph
Humidity: 85%   Direction: 300°WNW
Pressure: 29.84"   Gusts: 29mph
Location:  38.19°N, 80.13°W
Report Text: KHSP 280415Z AUTO 30017G25KT 10SM OVC009 M11/M13 A2984 RMK AO2 T11101130
Loading
Personal Weather Stations






























Interactive Weather Map New forecast layout! Learn more

10-Day Weather Forecast

Advertisements
Track Severe Weather on mobile